createdAt,value
2023-03-12T00:01:24.395Z,100395.31
2023-03-12T00:03:51.331Z,100403.09
2023-03-12T00:06:18.888Z,100404.81
2023-03-12T00:08:45.565Z,100401.38
2023-03-12T00:11:15.012Z,100401.38
2023-03-12T00:13:42.149Z,100400.56
2023-03-12T00:16:14.467Z,100391.09
2023-03-12T00:18:42.560Z,100398.81
2023-03-12T00:21:09.650Z,100393.69
2023-03-12T00:23:37.021Z,100398.84
2023-03-12T00:26:06.879Z,100396.34
2023-03-12T00:28:33.496Z,100393.78
2023-03-12T00:30:59.981Z,100394.66
2023-03-12T00:33:29.087Z,100389.53
2023-03-12T00:35:56.667Z,100386.19
2023-03-12T00:38:23.145Z,100376.75
2023-03-12T00:40:49.607Z,100376.81
2023-03-12T00:43:16.089Z,100376.84
2023-03-12T00:45:42.613Z,100379.44
2023-03-12T00:48:09.095Z,100373.41
2023-03-12T00:50:35.543Z,100367.41
2023-03-12T00:53:01.970Z,100368.28
2023-03-12T00:55:29.577Z,100370.00
2023-03-12T00:57:56.156Z,100364.91
2023-03-12T01:00:22.822Z,100364.03
2023-03-12T01:02:49.309Z,100365.78
2023-03-12T01:05:16.665Z,100359.75
2023-03-12T01:07:43.416Z,100357.19
2023-03-12T01:10:13.713Z,100353.75
2023-03-12T01:12:40.473Z,100367.53
2023-03-12T01:15:07.995Z,100359.00
2023-03-12T01:17:34.487Z,100354.66
2023-03-12T01:20:00.918Z,100354.66
2023-03-12T01:22:27.381Z,100353.84
2023-03-12T01:24:53.853Z,100350.41
2023-03-12T01:27:20.511Z,100340.97
2023-03-12T01:29:47.001Z,100346.13
2023-03-12T01:32:13.805Z,100347.88
2023-03-12T01:34:40.353Z,100345.34
2023-03-12T01:37:07.688Z,100343.63
2023-03-12T01:39:34.236Z,100343.59
2023-03-12T01:42:01.877Z,100335.03
2023-03-12T01:44:29.246Z,100340.22
2023-03-12T01:46:55.730Z,100331.59
2023-03-12T01:49:34.929Z,100328.16
2023-03-12T01:52:09.235Z,100326.44
2023-03-12T01:54:41.086Z,100314.41
2023-03-12T01:57:13.387Z,100305.81
2023-03-12T01:59:47.869Z,100302.38
2023-03-12T02:02:15.834Z,100313.53
2023-03-12T02:04:45.222Z,100314.38
2023-03-12T02:07:17.248Z,100321.22
2023-03-12T02:09:47.215Z,100317.78
2023-03-12T02:12:13.939Z,100317.75
2023-03-12T02:14:41.044Z,100322.94
2023-03-12T02:17:08.649Z,100312.59
2023-03-12T02:19:53.523Z,100304.94
2023-03-12T02:22:21.058Z,100294.63
2023-03-12T02:25:04.404Z,100290.31
2023-03-12T02:27:33.978Z,100289.41
2023-03-12T02:30:01.588Z,100297.16
2023-03-12T02:32:33.265Z,100292.84
2023-03-12T02:35:00.426Z,100293.75
2023-03-12T02:37:26.982Z,100291.13
2023-03-12T02:40:19.666Z,100298.06
2023-03-12T02:42:46.158Z,100296.34
2023-03-12T02:45:12.706Z,100293.78
2023-03-12T02:47:39.197Z,100291.22
2023-03-12T02:50:06.448Z,100295.50
2023-03-12T02:52:35.586Z,100297.22
2023-03-12T02:55:02.233Z,100288.63
2023-03-12T02:57:28.711Z,100280.00
2023-03-12T02:59:55.135Z,100271.41
2023-03-12T03:02:21.565Z,100269.69
2023-03-12T03:04:47.981Z,100267.97
2023-03-12T03:07:14.913Z,100265.41
2023-03-12T03:09:41.348Z,100254.22
2023-03-12T03:12:07.868Z,100263.69
2023-03-12T03:14:34.330Z,100258.53
2023-03-12T03:17:00.885Z,100256.81
2023-03-12T03:19:27.378Z,100251.66
2023-03-12T03:21:53.845Z,100253.38
2023-03-12T03:24:20.933Z,100248.22
2023-03-12T03:26:47.424Z,100256.81
2023-03-12T03:29:14.301Z,100243.91
2023-03-12T03:31:40.753Z,100240.53
2023-03-12T03:34:07.187Z,100232.78
2023-03-12T03:36:33.711Z,100232.78
2023-03-12T03:39:00.201Z,100244.84
2023-03-12T03:41:26.922Z,100247.44
2023-03-12T03:43:58.362Z,100237.16
2023-03-12T03:46:25.942Z,100241.47
2023-03-12T03:48:52.877Z,100241.44
2023-03-12T03:51:19.937Z,100240.56
2023-03-12T03:53:46.396Z,100244.94
2023-03-12T03:56:15.616Z,100243.22
2023-03-12T03:58:42.601Z,100238.06
2023-03-12T04:01:09.299Z,100248.41
2023-03-12T04:03:36.269Z,100248.41
2023-03-12T04:06:05.907Z,100242.38
2023-03-12T04:08:35.366Z,100235.53
2023-03-12T04:11:19.908Z,100248.41
2023-03-12T04:13:47.232Z,100249.25
2023-03-12T04:16:14.109Z,100237.19
2023-03-12T04:18:40.945Z,100241.50
2023-03-12T04:21:08.999Z,100240.72
2023-03-12T04:23:36.340Z,100226.09
2023-03-12T04:26:03.883Z,100226.09
2023-03-12T04:28:30.472Z,100223.47
2023-03-12T04:31:01.819Z,100223.44
2023-03-12T04:33:30.077Z,100226.06
2023-03-12T04:35:57.171Z,100217.47
2023-03-12T04:38:25.424Z,100226.09
2023-03-12T04:41:07.663Z,100216.63
2023-03-12T04:43:35.002Z,100211.47
2023-03-12T04:46:02.931Z,100209.75
2023-03-12T04:48:29.530Z,100209.81
2023-03-12T04:50:56.190Z,100216.69
2023-03-12T04:53:23.094Z,100219.28
2023-03-12T04:55:50.425Z,100220.13
2023-03-12T04:58:17.419Z,100210.69
2023-03-12T05:00:44.026Z,100211.53
2023-03-12T05:03:10.643Z,100201.25
2023-03-12T05:05:37.178Z,100193.53
2023-03-12T05:08:04.279Z,100199.56
2023-03-12T05:10:30.784Z,100195.25
2023-03-12T05:12:57.278Z,100195.25
2023-03-12T05:15:23.776Z,100183.25
2023-03-12T05:17:50.725Z,100169.50
2023-03-12T05:20:21.131Z,100162.59
2023-03-12T05:22:47.636Z,100175.47
2023-03-12T05:25:14.460Z,100165.13
2023-03-12T05:27:40.932Z,100153.09
2023-03-12T05:30:07.842Z,100154.81
2023-03-12T05:32:34.388Z,100143.63
2023-03-12T05:35:00.837Z,100151.31
2023-03-12T05:37:27.421Z,100135.84
2023-03-12T05:39:54.796Z,100144.47
2023-03-12T05:42:21.230Z,100134.16
2023-03-12T05:44:47.957Z,100127.22
2023-03-12T05:47:14.382Z,100128.09
2023-03-12T05:49:40.843Z,100130.66
2023-03-12T05:52:07.427Z,100143.56
2023-03-12T05:54:33.866Z,100122.06
2023-03-12T05:57:00.508Z,100125.44
2023-03-12T05:59:27.220Z,100116.88
2023-03-12T06:01:53.708Z,100112.59
2023-03-12T06:04:20.244Z,100104.84
2023-03-12T06:06:46.984Z,100099.69
2023-03-12T06:09:13.483Z,100100.59
2023-03-12T06:11:39.906Z,100091.94
2023-03-12T06:14:06.409Z,100079.91
2023-03-12T06:16:32.988Z,100083.34
2023-03-12T06:19:02.654Z,100088.50
2023-03-12T06:21:31.815Z,100086.78
2023-03-12T06:24:03.091Z,100088.50
2023-03-12T06:26:29.690Z,100088.50
2023-03-12T06:28:56.181Z,100090.22
2023-03-12T06:31:24.141Z,100091.94
2023-03-12T06:33:51.513Z,100086.78
2023-03-12T06:36:18.029Z,100091.94
2023-03-12T06:38:44.489Z,100085.88
2023-03-12T06:41:17.253Z,100097.94
2023-03-12T06:43:44.971Z,100099.66
2023-03-12T06:46:17.707Z,100089.38
2023-03-12T06:48:46.234Z,100091.09
2023-03-12T06:51:14.985Z,100082.47
2023-03-12T06:53:42.606Z,100084.22
2023-03-12T06:56:09.863Z,100091.94
2023-03-12T06:58:36.283Z,100093.66
2023-03-12T07:01:03.660Z,100093.72
2023-03-12T07:03:30.192Z,100092.00
2023-03-12T07:05:57.760Z,100098.03
2023-03-12T07:08:25.285Z,100093.72
2023-03-12T07:10:51.746Z,100085.97
2023-03-12T07:13:18.216Z,100092.00
2023-03-12T07:15:46.457Z,100093.75
2023-03-12T07:18:13.661Z,100098.06
2023-03-12T07:20:42.226Z,100095.50
2023-03-12T07:23:09.925Z,100084.34
2023-03-12T07:25:39.766Z,100066.28
2023-03-12T07:28:07.189Z,100054.25
2023-03-12T07:30:34.354Z,100059.41
2023-03-12T07:33:05.234Z,100068.88
2023-03-12T07:35:32.763Z,100066.31
2023-03-12T07:38:00.861Z,100070.66
2023-03-12T07:40:28.494Z,100074.94
2023-03-12T07:42:54.933Z,100078.41
2023-03-12T07:45:22.053Z,100077.53
2023-03-12T07:47:49.486Z,100073.22
2023-03-12T07:50:17.993Z,100075.81
2023-03-12T07:52:45.236Z,100073.22
2023-03-12T07:55:12.513Z,100074.94
2023-03-12T07:57:39.164Z,100068.06
2023-03-12T08:00:10.488Z,100065.50
2023-03-12T08:02:37.435Z,100064.66
2023-03-12T08:05:04.685Z,100063.78
2023-03-12T08:07:34.834Z,100070.69
2023-03-12T08:10:02.962Z,100073.28
2023-03-12T08:12:29.830Z,100085.34
2023-03-12T08:14:59.238Z,100080.19
2023-03-12T08:17:26.189Z,100088.81
2023-03-12T08:19:52.643Z,100078.44
2023-03-12T08:22:19.118Z,100071.59
2023-03-12T08:24:45.565Z,100080.19
2023-03-12T08:27:14.949Z,100086.22
2023-03-12T08:29:41.646Z,100081.06
2023-03-12T08:32:10.577Z,100089.69
2023-03-12T08:34:37.211Z,100081.09
2023-03-12T08:37:03.914Z,100076.81
2023-03-12T08:39:30.421Z,100075.94
2023-03-12T08:41:56.889Z,100078.53
2023-03-12T08:44:23.791Z,100070.75
2023-03-12T08:46:51.458Z,100062.19
2023-03-12T08:49:18.465Z,100063.00
2023-03-12T08:51:45.042Z,100060.44
2023-03-12T08:54:11.542Z,100063.91
2023-03-12T08:56:41.924Z,100062.19
2023-03-12T08:59:10.244Z,100056.16
2023-03-12T09:01:37.129Z,100060.44
2023-03-12T09:04:05.279Z,100056.13
2023-03-12T09:06:33.493Z,100056.13
2023-03-12T09:09:04.823Z,100059.59
2023-03-12T09:11:33.770Z,100058.72
2023-03-12T09:16:47.932Z,100066.47
2023-03-12T09:19:14.693Z,100066.47
2023-03-12T09:21:41.456Z,100068.22
2023-03-12T09:24:08.540Z,100062.19
2023-03-12T09:26:34.990Z,100070.81
2023-03-12T09:29:01.534Z,100057.88
2023-03-12T09:31:28.339Z,100063.03
2023-03-12T09:33:54.830Z,100067.38
2023-03-12T09:36:21.351Z,100073.38
2023-03-12T09:38:47.879Z,100071.66
2023-03-12T09:41:27.426Z,100075.13
2023-03-12T09:44:02.248Z,100075.13
2023-03-12T09:46:42.050Z,100065.66
2023-03-12T09:49:19.510Z,100071.69
2023-03-12T09:51:54.001Z,100067.38
2023-03-12T09:54:29.513Z,100076.00
2023-03-12T09:57:00.644Z,100083.75
2023-03-12T09:59:27.206Z,100085.47
2023-03-12T10:01:59.001Z,100083.75
2023-03-12T10:04:58.633Z,100081.16
2023-03-12T10:07:38.360Z,100067.38
2023-03-12T10:10:19.917Z,100070.81
2023-03-12T10:13:01.732Z,100082.91
2023-03-12T10:15:43.435Z,100084.63
2023-03-12T10:18:19.021Z,100082.03
2023-03-12T10:21:03.931Z,100086.34
2023-03-12T10:23:49.169Z,100076.00
2023-03-12T10:26:18.589Z,100077.72
2023-03-12T10:28:51.587Z,100079.44
2023-03-12T10:31:34.330Z,100090.66
2023-03-12T10:34:03.617Z,100087.22
2023-03-12T10:36:33.049Z,100086.31
2023-03-12T10:38:59.627Z,100092.34
2023-03-12T10:41:32.164Z,100091.47
2023-03-12T10:44:07.621Z,100094.94
2023-03-12T10:46:37.142Z,100097.53
2023-03-12T10:49:36.799Z,100091.47
2023-03-12T10:52:05.908Z,100099.25
2023-03-12T10:54:38.641Z,100097.47
2023-03-12T10:57:05.288Z,100092.31
2023-03-12T10:59:35.103Z,100107.84
2023-03-12T11:02:02.964Z,100100.94
2023-03-12T11:04:32.237Z,100100.09
2023-03-12T11:07:04.895Z,100089.72
2023-03-12T11:09:31.455Z,100094.88
2023-03-12T11:11:58.021Z,100098.31
2023-03-12T11:14:29.957Z,100100.03
2023-03-12T11:16:57.329Z,100093.97
2023-03-12T11:19:33.218Z,100093.06
2023-03-12T11:22:08.099Z,100092.19
2023-03-12T11:24:35.263Z,100097.41
2023-03-12T11:27:28.398Z,100088.75
2023-03-12T11:29:55.087Z,100089.59
2023-03-12T11:34:57.384Z,100082.69
2023-03-12T11:37:26.884Z,100081.78
2023-03-12T11:40:24.289Z,100086.09
2023-03-12T11:43:29.190Z,100080.91
2023-03-12T11:46:22.843Z,100088.66
2023-03-12T11:49:05.821Z,100086.94
2023-03-12T11:51:41.337Z,100088.63
2023-03-12T11:54:32.666Z,100087.72
2023-03-12T11:57:09.396Z,100090.28
2023-03-12T11:59:38.822Z,100088.59
2023-03-12T12:02:15.461Z,100094.63
2023-03-12T12:05:00.651Z,100088.56
2023-03-12T12:07:30.122Z,100077.31
2023-03-12T12:10:11.724Z,100078.06
2023-03-12T12:12:59.877Z,100078.06
2023-03-12T12:15:32.545Z,100077.22
2023-03-12T12:18:17.201Z,100077.19
2023-03-12T12:20:49.026Z,100077.22
2023-03-12T12:23:29.336Z,100072.06
2023-03-12T12:26:17.379Z,100084.13
2023-03-12T12:29:16.342Z,100073.69
2023-03-12T12:31:54.334Z,100077.94
2023-03-12T12:34:29.922Z,100077.91
2023-03-12T12:37:19.536Z,100077.06
2023-03-12T12:39:52.835Z,100076.06
2023-03-12T12:42:26.297Z,100068.16
2023-03-12T12:44:55.258Z,100063.75
2023-03-12T12:47:34.357Z,100054.84
2023-03-12T12:50:02.963Z,100048.00
2023-03-12T12:52:29.794Z,100048.75
2023-03-12T12:55:16.334Z,100051.31
2023-03-12T12:57:49.269Z,100043.06
2023-03-12T13:00:22.160Z,100021.06
2023-03-12T13:02:49.642Z,100026.91
2023-03-12T13:05:45.090Z,100018.66
2023-03-12T13:08:37.206Z,100010.75
2023-03-12T13:11:25.555Z,100013.19
2023-03-12T13:14:14.196Z,100009.25
2023-03-12T13:16:45.667Z,100015.53
2023-03-12T13:19:15.159Z,100008.88
2023-03-12T13:22:02.672Z,100005.31
2023-03-12T13:24:53.332Z,99999.03
2023-03-12T13:27:25.618Z,99999.91
2023-03-12T13:29:57.076Z,99986.94
2023-03-12T13:32:37.713Z,99986.97
2023-03-12T13:35:27.135Z,99981.41
2023-03-12T13:37:53.540Z,99985.44
2023-03-12T13:40:29.409Z,99977.91
2023-03-12T13:43:02.252Z,99979.63
2023-03-12T13:45:31.800Z,99970.03
2023-03-12T13:48:01.668Z,99975.56
2023-03-12T13:50:30.369Z,99973.16
2023-03-12T13:53:02.135Z,99966.19
2023-03-12T13:55:31.781Z,99967.59
2023-03-12T13:58:07.986Z,99961.53
2023-03-12T14:00:47.671Z,99962.03
2023-03-12T14:03:20.840Z,99956.78
2023-03-12T14:06:05.962Z,99957.09
2023-03-12T14:08:40.439Z,99957.19
2023-03-12T14:11:33.619Z,99959.63
2023-03-12T14:14:05.837Z,99945.66
2023-03-12T14:16:46.187Z,99940.34
2023-03-12T14:19:14.263Z,99947.16
2023-03-12T14:21:43.476Z,99947.22
2023-03-12T14:24:30.698Z,99947.06
2023-03-12T14:26:57.794Z,99943.06
2023-03-12T14:30:38.301Z,99947.31
2023-03-12T14:33:05.450Z,99944.69
2023-03-12T14:35:43.426Z,99944.88
2023-03-12T14:38:23.340Z,99945.44
2023-03-12T14:41:00.548Z,99942.66
2023-03-12T14:43:30.195Z,99947.03
2023-03-12T14:45:58.861Z,99945.56
2023-03-12T14:48:31.458Z,99947.94
2023-03-12T14:50:59.455Z,99953.25
2023-03-12T14:53:32.222Z,99966.69
2023-03-12T14:56:05.321Z,99958.88
2023-03-12T14:58:33.179Z,99958.06
2023-03-12T15:01:05.607Z,99953.25
2023-03-12T15:03:40.908Z,99956.72
2023-03-12T15:06:15.126Z,99954.22
2023-03-12T15:08:43.083Z,99959.13
2023-03-12T15:11:10.754Z,99966.97
2023-03-12T15:13:39.032Z,99967.13
2023-03-12T15:16:06.334Z,99958.63
2023-03-12T15:18:33.504Z,99958.69
2023-03-12T15:21:02.382Z,99954.75
2023-03-12T15:23:32.558Z,99971.06
2023-03-12T15:26:22.270Z,99974.00
2023-03-12T15:28:57.748Z,99982.00
2023-03-12T15:31:24.478Z,99986.31
2023-03-12T15:34:06.075Z,99966.47
2023-03-12T15:36:34.946Z,99963.81
2023-03-12T15:39:12.840Z,99983.44
2023-03-12T15:41:48.776Z,99983.66
2023-03-12T15:44:19.985Z,99969.69
2023-03-12T15:46:48.843Z,99982.81
2023-03-12T15:49:28.897Z,99980.78
2023-03-12T15:52:00.174Z,99995.22
2023-03-12T15:54:29.407Z,99991.91
2023-03-12T15:57:12.066Z,100000.44
2023-03-12T15:59:38.646Z,99999.34
2023-03-12T16:02:11.695Z,100004.63
2023-03-12T16:04:38.225Z,99994.06
2023-03-12T16:07:12.051Z,100016.59
2023-03-12T16:09:38.621Z,100008.53
2023-03-12T16:12:05.296Z,100004.44
2023-03-12T16:14:34.542Z,100010.59
2023-03-12T16:17:01.023Z,99998.28
2023-03-12T16:19:29.844Z,100009.44
2023-03-12T16:21:56.320Z,100012.53
2023-03-12T16:24:22.770Z,100014.34
2023-03-12T16:26:55.416Z,100026.25
2023-03-12T16:29:26.241Z,100022.94
2023-03-12T16:31:56.051Z,100025.66
2023-03-12T16:34:22.883Z,100026.00
2023-03-12T16:36:49.646Z,100024.28
2023-03-12T16:39:18.480Z,100017.50
2023-03-12T16:41:45.507Z,100020.00
2023-03-12T16:44:19.856Z,100024.28
2023-03-12T16:46:46.507Z,100026.91
2023-03-12T16:49:18.046Z,100030.75
2023-03-12T16:51:44.584Z,100032.56
2023-03-12T16:54:12.135Z,100025.78
2023-03-12T16:56:43.382Z,100027.38
2023-03-12T16:59:26.401Z,100021.34
2023-03-12T17:01:52.897Z,100012.75
2023-03-12T17:04:19.424Z,100019.88
2023-03-12T17:06:45.950Z,100021.22
2023-03-12T17:09:12.477Z,100020.44
2023-03-12T17:11:39.346Z,100017.50
2023-03-12T17:14:17.094Z,100019.28
2023-03-12T17:16:43.823Z,100021.72
2023-03-12T17:19:10.447Z,100026.72
2023-03-12T17:21:37.429Z,100022.88
2023-03-12T17:24:04.274Z,100021.69
2023-03-12T17:26:30.792Z,100017.69
2023-03-12T17:28:57.497Z,100022.13
2023-03-12T17:31:24.715Z,100024.63
2023-03-12T17:33:52.737Z,100027.81
2023-03-12T17:36:19.213Z,100026.38
2023-03-12T17:38:45.744Z,100029.41
2023-03-12T17:41:25.630Z,100030.38
2023-03-12T17:43:53.466Z,100026.91
2023-03-12T17:46:20.043Z,100033.91
2023-03-12T17:48:46.488Z,100042.41
2023-03-12T17:51:12.888Z,100047.59
2023-03-12T17:53:39.635Z,100054.03
2023-03-12T17:56:06.889Z,100055.84
2023-03-12T17:58:36.128Z,100060.16
2023-03-12T18:01:02.644Z,100056.72
2023-03-12T18:03:29.419Z,100065.25
2023-03-12T18:05:55.992Z,100053.56
2023-03-12T18:08:22.528Z,100063.03
2023-03-12T18:10:49.366Z,100057.00
2023-03-12T18:13:15.895Z,100069.50
2023-03-12T18:15:42.579Z,100069.28
2023-03-12T18:18:09.154Z,100061.44
2023-03-12T18:20:39.586Z,100057.25
2023-03-12T18:23:06.477Z,100059.94
2023-03-12T18:25:33.013Z,100043.16
2023-03-12T18:27:59.421Z,100045.88
2023-03-12T18:30:26.217Z,100054.28
2023-03-12T18:32:52.719Z,100053.47
2023-03-12T18:35:19.372Z,100052.41
2023-03-12T18:37:48.640Z,100063.97
2023-03-12T18:40:15.251Z,100062.41
2023-03-12T18:42:44.458Z,100067.03
2023-03-12T18:45:12.227Z,100069.09
2023-03-12T18:47:39.519Z,100057.84
2023-03-12T18:50:10.304Z,100066.59
2023-03-12T18:52:36.833Z,100061.75
2023-03-12T18:55:04.430Z,100066.09
2023-03-12T18:57:31.642Z,100059.34
2023-03-12T18:59:59.465Z,100060.19
2023-03-12T19:02:26.088Z,100059.38
2023-03-12T19:04:55.490Z,100046.63
2023-03-12T19:07:22.552Z,100047.50
2023-03-12T19:09:48.981Z,100042.09
2023-03-12T19:12:15.417Z,100044.06
2023-03-12T19:14:42.008Z,100034.75
2023-03-12T19:17:08.468Z,100048.78
2023-03-12T19:19:34.881Z,100036.63
2023-03-12T19:22:01.407Z,100042.28
2023-03-12T19:24:27.892Z,100048.47
2023-03-12T19:26:54.300Z,100044.25
2023-03-12T19:29:20.804Z,100039.06
2023-03-12T19:31:47.368Z,100034.03
2023-03-12T19:34:13.910Z,100026.28
2023-03-12T19:36:40.430Z,100016.84
2023-03-12T19:39:18.783Z,100023.91
2023-03-12T19:41:46.840Z,100019.47
2023-03-12T19:44:13.299Z,100015.25
2023-03-12T19:46:42.932Z,100022.19
2023-03-12T19:49:09.639Z,100023.94
2023-03-12T19:51:36.296Z,100016.25
2023-03-12T19:54:02.809Z,100008.41
2023-03-12T19:56:29.360Z,100007.47
2023-03-12T19:58:55.930Z,100007.47
2023-03-12T20:01:22.890Z,100003.09
2023-03-12T20:03:49.437Z,99984.84
2023-03-12T20:06:15.907Z,99997.09
2023-03-12T20:08:42.353Z,99992.84
2023-03-12T20:11:10.534Z,99996.25
2023-03-12T20:13:40.347Z,99992.78
2023-03-12T20:16:07.969Z,99989.28
2023-03-12T20:18:34.551Z,99984.19
2023-03-12T20:21:01.095Z,99977.19
2023-03-12T20:23:27.653Z,99982.53
2023-03-12T20:25:54.134Z,99971.31
2023-03-12T20:28:20.654Z,99972.81
2023-03-12T20:30:48.441Z,99972.03
2023-03-12T20:33:14.991Z,99969.31
2023-03-12T20:35:41.522Z,99967.56
2023-03-12T20:38:08.420Z,99962.31
2023-03-12T20:40:34.971Z,99954.53
2023-03-12T20:43:04.720Z,99962.25
2023-03-12T20:45:33.133Z,99957.88
2023-03-12T20:48:00.075Z,99954.53
2023-03-12T20:50:27.245Z,99955.44
2023-03-12T20:52:53.754Z,99962.34
2023-03-12T20:55:20.683Z,99949.50
2023-03-12T20:57:48.034Z,99944.47
2023-03-12T21:00:14.775Z,99941.84
2023-03-12T21:02:41.358Z,99942.75
2023-03-12T21:05:10.314Z,99932.19
2023-03-12T21:07:36.847Z,99924.34
2023-03-12T21:10:03.934Z,99931.44
2023-03-12T21:12:30.381Z,99915.69
2023-03-12T21:15:05.905Z,99919.28
2023-03-12T21:17:42.312Z,99912.31
2023-03-12T21:20:17.486Z,99911.53
2023-03-12T21:22:44.432Z,99914.16
2023-03-12T21:25:11.828Z,99904.66
2023-03-12T21:27:50.021Z,99910.66
2023-03-12T21:30:17.494Z,99904.69
2023-03-12T21:32:43.995Z,99902.19
2023-03-12T21:35:10.945Z,99900.50
2023-03-12T21:37:37.486Z,99895.28
2023-03-12T21:40:05.035Z,99894.41
2023-03-12T21:42:33.414Z,99892.66
2023-03-12T21:45:03.136Z,99891.91
2023-03-12T21:47:29.607Z,99892.78
2023-03-12T21:49:56.127Z,99890.13
2023-03-12T21:52:22.611Z,99883.94
2023-03-12T21:54:49.227Z,99875.25
2023-03-12T21:57:15.666Z,99879.56
2023-03-12T21:59:42.103Z,99873.59
2023-03-12T22:02:12.105Z,99881.38
2023-03-12T22:04:41.543Z,99883.00
2023-03-12T22:07:08.124Z,99881.38
2023-03-12T22:09:34.561Z,99873.59
2023-03-12T22:12:01.825Z,99878.59
2023-03-12T22:14:28.756Z,99872.53
2023-03-12T22:16:55.319Z,99866.56
2023-03-12T22:19:21.879Z,99870.16
2023-03-12T22:21:48.360Z,99876.34
2023-03-12T22:24:14.812Z,99868.56
2023-03-12T22:26:41.245Z,99850.28
2023-03-12T22:29:15.715Z,99848.50
2023-03-12T22:31:42.174Z,99845.66
2023-03-12T22:34:11.658Z,99839.66
2023-03-12T22:36:39.532Z,99832.72
2023-03-12T22:39:05.974Z,99824.97
2023-03-12T22:41:33.014Z,99823.13
2023-03-12T22:44:07.480Z,99819.56
2023-03-12T22:46:34.465Z,99823.13
2023-03-12T22:49:02.986Z,99815.44
2023-03-12T22:51:32.019Z,99806.75
2023-03-12T22:54:01.449Z,99805.09
2023-03-12T22:56:28.634Z,99798.22
2023-03-12T22:58:55.794Z,99798.16
2023-03-12T23:01:23.699Z,99784.38
2023-03-12T23:03:50.734Z,99780.13
2023-03-12T23:06:20.355Z,99771.22
2023-03-12T23:08:48.011Z,99772.88
2023-03-12T23:11:16.023Z,99761.56
2023-03-12T23:13:44.592Z,99759.94
2023-03-12T23:16:17.166Z,99750.44
2023-03-12T23:18:44.476Z,99739.03
2023-03-12T23:21:14.688Z,99739.78
2023-03-12T23:23:45.466Z,99732.84
2023-03-12T23:26:24.459Z,99730.19
2023-03-12T23:28:53.509Z,99717.19
2023-03-12T23:31:23.500Z,99710.94
2023-03-12T23:33:51.221Z,99703.13
2023-03-12T23:36:20.580Z,99709.19
2023-03-12T23:38:48.420Z,99699.63
2023-03-12T23:41:27.045Z,99695.25
2023-03-12T23:43:53.704Z,99687.31
2023-03-12T23:46:20.499Z,99682.88
2023-03-12T23:48:47.827Z,99676.59
2023-03-12T23:51:17.656Z,99680.03
2023-03-12T23:53:47.155Z,99675.72
2023-03-12T23:56:17.033Z,99674.06
2023-03-12T23:58:44.918Z,99664.19
